Time;durP1;ratioP1;P1;durP2;ratioP2;P2;SDS_P1;SDS_P2;PMS_P1;PMS_P2;Temp;Humidity;BMP_temperature;BMP_pressure;BME280_temperature;BME280_humidity;BME280_pressure;Samples;Min_cycle;Max_cycle;Signal;HPM_P1;HPM_P2
2021/12/23 00:00:00;;;;;;;327.07;59.73;;;;;;;-7.37;100.00;96147.59;1030788;28;20022;-72
2021/12/23 00:00:30;;;;;;;177.70;47.83;;;;;;;-7.35;100.00;96145.69;1033855;28;20022;-72
2021/12/23 00:01:00;;;;;;;163.80;47.50;;;;;;;-7.35;100.00;96138.84;1034287;28;20053;-72
2021/12/23 00:01:31;;;;;;;286.47;55.33;;;;;;;-7.33;100.00;96140.47;1036170;28;20050;-72
2021/12/23 00:02:02;;;;;;;222.70;50.47;;;;;;;-7.31;100.00;96146.19;1024408;28;20051;-73
2021/12/23 00:02:35;;;;;;;279.17;52.63;;;;;;;-7.32;100.00;96145.41;1030276;28;20057;-71
2021/12/23 00:03:05;;;;;;;294.38;55.03;;;;;;;-7.31;100.00;96141.09;1030291;28;20018;-72
2021/12/23 00:03:36;;;;;;;315.23;56.80;;;;;;;-7.41;100.00;96124.13;1030887;28;20022;-71
2021/12/23 00:04:09;;;;;;;240.23;52.57;;;;;;;-7.29;100.00;96144.31;1030276;28;20019;-71
2021/12/23 00:04:39;;;;;;;236.52;54.25;;;;;;;-7.29;100.00;96141.78;1027071;28;20105;-72
2021/12/23 00:05:10;;;;;;;252.73;52.17;;;;;;;-7.34;100.00;96132.03;1026608;28;20018;-72
2021/12/23 00:05:40;;;;;;;259.03;55.57;;;;;;;-7.26;100.00;96139.75;1032102;28;20025;-72
2021/12/23 00:06:11;;;;;;;197.53;49.77;;;;;;;-7.24;100.00;96144.69;1034560;28;20014;-72
2021/12/23 00:06:43;;;;;;;249.30;56.60;;;;;;;-7.33;100.00;96133.63;1030436;28;20026;-72
2021/12/23 00:07:14;;;;;;;330.92;57.97;;;;;;;-7.23;100.00;96143.78;1030208;28;20031;-71
2021/12/23 00:07:44;;;;;;;385.67;62.57;;;;;;;-7.22;100.00;96145.38;1022359;29;20393;-72
2021/12/23 00:08:15;;;;;;;319.07;54.23;;;;;;;-7.19;100.00;96150.19;1025398;28;20519;-72
2021/12/23 00:08:45;;;;;;;250.63;55.97;;;;;;;-7.19;100.00;96145.88;1030858;28;20057;-72
2021/12/23 00:09:16;;;;;;;217.90;52.97;;;;;;;-7.29;100.00;96134.13;1034274;28;20030;-71
2021/12/23 00:10:04;;;;;;;181.30;51.43;;;;;;;-7.17;100.00;96138.09;1035729;28;20028;-71
2021/12/23 00:10:35;;;;;;;456.40;66.25;;;;;;;-7.23;100.00;96133.56;1040377;28;20025;-72
2021/12/23 00:11:05;;;;;;;305.20;53.83;;;;;;;-7.31;100.00;96133.47;1038454;28;20349;-71
2021/12/23 00:11:36;;;;;;;342.27;57.63;;;;;;;-7.29;100.00;96132.38;1040879;28;21325;-72
2021/12/23 00:12:07;;;;;;;471.93;70.23;;;;;;;-7.31;100.00;96146.19;1038625;28;20414;-71
2021/12/23 00:12:41;;;;;;;303.73;60.35;;;;;;;-7.33;100.00;96132.81;1029997;28;20547;-72
2021/12/23 00:13:12;;;;;;;319.70;60.35;;;;;;;-7.38;100.00;96134.06;1030322;28;20480;-71
2021/12/23 00:13:59;;;;;;;320.17;59.67;;;;;;;-7.32;100.00;96135.22;1030323;28;20113;-72
2021/12/23 00:14:31;;;;;;;413.58;62.25;;;;;;;-7.35;100.00;96131.19;1022293;29;20032;-72
2021/12/23 00:15:04;;;;;;;505.42;68.68;;;;;;;-7.32;100.00;96132.66;1033273;28;20667;-72
2021/12/23 00:15:49;;;;;;;442.92;70.10;;;;;;;-7.32;100.00;96132.66;1038494;28;20029;-71
2021/12/23 00:16:30;;;;;;;489.10;68.35;;;;;;;-7.36;100.00;96132.16;1038304;28;20036;-72
2021/12/23 00:17:19;;;;;;;;;;;;;;;-7.30;100.00;96123.13;1034562;28;20058;-71
2021/12/23 00:17:57;;;;;;;185.10;48.88;;;;;;;-7.29;100.00;96114.53;1035190;28;19910;-71
2021/12/23 00:19:33;;;;;;;174.02;46.97;;;;;;;-7.34;100.00;96114.19;1031778;28;20031;-72
2021/12/23 00:23:41;;;;;;;226.60;47.97;;;;;;;-7.24;100.00;96126.84;1035238;28;20018;-72
2021/12/23 00:24:11;;;;;;;418.85;55.25;;;;;;;-7.36;100.00;96114.31;1032628;28;20025;-72
2021/12/23 00:24:42;;;;;;;407.50;54.70;;;;;;;-7.45;100.00;96112.59;1031157;28;20141;-71
2021/12/23 00:25:12;;;;;;;410.73;55.87;;;;;;;-7.44;100.00;96116.78;1028850;28;20048;-71
2021/12/23 00:25:43;;;;;;;429.40;60.93;;;;;;;-7.55;100.00;96104.19;1035338;28;20014;-73
2021/12/23 00:26:13;;;;;;;477.43;59.60;;;;;;;-7.56;100.00;96117.88;1032083;28;20089;-71
2021/12/23 00:26:43;;;;;;;523.73;60.93;;;;;;;-7.60;100.00;96126.75;1032421;28;20073;-73
2021/12/23 00:27:14;;;;;;;522.40;62.57;;;;;;;-7.67;100.00;96123.19;1035224;28;20459;-71
2021/12/23 00:27:45;;;;;;;430.47;59.87;;;;;;;-7.68;100.00;96119.00;1031024;28;20601;-72
2021/12/23 00:28:16;;;;;;;284.20;53.17;;;;;;;-7.74;100.00;96105.09;1035250;28;20026;-71
2021/12/23 00:28:46;;;;;;;270.52;50.63;;;;;;;-7.63;100.00;96119.41;1031204;28;20014;-72
2021/12/23 00:29:17;;;;;;;229.80;46.10;;;;;;;-7.67;100.00;96128.28;1038941;28;20045;-72
2021/12/23 00:29:47;;;;;;;178.73;43.23;;;;;;;-7.74;100.00;96120.38;1034932;28;20074;-72
2021/12/23 00:30:18;;;;;;;319.73;52.50;;;;;;;-7.82;100.00;96115.97;1031778;28;20026;-72
2021/12/23 00:30:48;;;;;;;197.73;46.07;;;;;;;-7.79;100.00;96121.72;1027376;28;20022;-72
2021/12/23 00:31:19;;;;;;;254.70;48.23;;;;;;;-7.88;100.00;96121.63;1033057;28;20018;-72
2021/12/23 00:31:49;;;;;;;295.17;45.00;;;;;;;-7.95;100.00;96115.47;1032271;28;20022;-72
2021/12/23 00:32:20;;;;;;;217.50;45.00;;;;;;;-7.90;100.00;96125.25;1031143;28;20022;-72
2021/12/23 00:32:50;;;;;;;182.77;43.90;;;;;;;-7.84;100.00;96125.50;1028288;28;20023;-71
2021/12/23 00:33:22;;;;;;;206.10;45.33;;;;;;;-7.93;100.00;96111.06;1034989;28;20108;-72
2021/12/23 00:33:53;;;;;;;206.52;46.92;;;;;;;-7.92;100.00;96107.56;1035426;28;20563;-71
2021/12/23 00:34:23;;;;;;;162.57;44.13;;;;;;;-7.79;100.00;96119.19;1035535;28;20010;-71
2021/12/23 00:34:54;;;;;;;228.03;45.37;;;;;;;-7.79;100.00;96124.28;1039076;28;20033;-71
2021/12/23 00:35:25;;;;;;;222.67;48.47;;;;;;;-7.95;100.00;96104.47;1031140;28;20019;-72
2021/12/23 00:35:55;;;;;;;178.48;46.10;;;;;;;-8.06;100.00;96075.72;1025280;28;20110;-71
2021/12/23 00:36:26;;;;;;;168.90;45.03;;;;;;;-7.75;100.00;96120.50;1030887;28;20041;-72
2021/12/23 00:36:58;;;;;;;131.97;42.10;;;;;;;-7.76;100.00;96116.38;1034448;28;20527;-71
2021/12/23 00:37:36;;;;;;;224.05;44.33;;;;;;;-7.85;100.00;96118.00;1040045;28;20418;-72
2021/12/23 00:38:16;;;;;;;193.75;44.08;;;;;;;-7.79;100.00;96121.72;1036515;28;20053;-72
2021/12/23 00:38:54;;;;;;;257.17;49.00;;;;;;;-7.78;100.00;96115.69;1033810;28;20018;-72
2021/12/23 00:39:26;;;;;;;188.88;41.40;;;;;;;-7.82;100.00;96113.41;1034503;28;20037;-72
2021/12/23 00:39:56;;;;;;;131.02;40.20;;;;;;;-7.74;100.00;96111.94;1034334;28;20017;-72
2021/12/23 00:40:27;;;;;;;170.27;43.80;;;;;;;-7.82;100.00;96098.13;1030833;28;20039;-72
2021/12/23 00:40:59;;;;;;;166.67;41.50;;;;;;;-7.86;100.00;96094.28;1027397;28;20031;-72
2021/12/23 00:41:31;;;;;;;169.32;43.05;;;;;;;-7.79;100.00;96112.34;1026972;28;20112;-72
2021/12/23 00:42:07;;;;;;;152.02;43.85;;;;;;;-7.87;100.00;96107.94;1027001;28;20027;-72
2021/12/23 00:42:37;;;;;;;210.88;40.97;;;;;;;-7.83;100.00;96111.03;1036375;28;20040;-71
2021/12/23 00:43:11;;;;;;;227.53;46.30;;;;;;;-7.83;100.00;96111.81;1036388;28;20019;-72
2021/12/23 00:43:42;;;;;;;278.27;45.10;;;;;;;-7.94;100.00;96106.91;1043262;28;20017;-73
2021/12/23 00:44:12;;;;;;;421.70;49.10;;;;;;;-7.90;100.00;96109.97;1037768;28;20023;-73
2021/12/23 00:44:47;;;;;;;334.47;48.13;;;;;;;-7.90;100.00;96110.78;1035230;28;20017;-72
2021/12/23 00:45:17;;;;;;;199.80;42.03;;;;;;;-7.89;100.00;96102.19;1035209;28;20014;-72
2021/12/23 00:45:51;;;;;;;258.07;45.03;;;;;;;-7.90;100.00;96099.78;1031105;28;20030;-72
2021/12/23 00:46:21;;;;;;;141.02;42.80;;;;;;;-7.84;100.00;96099.25;1034918;28;20025;-72
2021/12/23 00:46:52;;;;;;;154.27;42.40;;;;;;;-7.78;100.00;96098.66;1034897;28;20107;-73
2021/12/23 00:47:22;;;;;;;135.17;42.10;;;;;;;-7.73;100.00;96108.44;1035167;28;20143;-73
2021/12/23 00:47:52;;;;;;;114.43;39.67;;;;;;;-7.72;100.00;96104.94;1034885;28;20013;-72
2021/12/23 00:48:23;;;;;;;100.13;39.63;;;;;;;-7.63;100.00;96109.22;1028534;28;20058;-72
2021/12/23 00:48:53;;;;;;;95.40;39.80;;;;;;;-7.56;100.00;96112.00;1026877;28;20015;-72
2021/12/23 00:49:24;;;;;;;214.73;46.73;;;;;;;-7.67;100.00;96095.94;1027052;28;20027;-72
2021/12/23 00:49:54;;;;;;;285.10;47.57;;;;;;;-7.60;100.00;96111.47;1026405;28;20038;-72
2021/12/23 00:50:25;;;;;;;203.83;44.20;;;;;;;-7.70;100.00;96095.44;1026501;28;20027;-72
2021/12/23 00:50:55;;;;;;;182.20;45.40;;;;;;;-7.62;100.00;96106.50;1026859;28;20436;-72
2021/12/23 00:51:26;;;;;;;193.53;43.60;;;;;;;-7.63;100.00;96104.13;1027315;28;20050;-72
2021/12/23 00:51:57;;;;;;;242.37;44.73;;;;;;;-7.78;100.00;96100.41;1034436;28;20062;-72
2021/12/23 00:52:33;;;;;;;96.45;38.17;;;;;;;-7.71;100.00;96098.91;1035445;28;20021;-71
2021/12/23 00:53:07;;;;;;;224.43;43.13;;;;;;;-7.72;100.00;96107.50;1031068;28;20444;-72
2021/12/23 00:53:39;;;;;;;224.60;42.85;;;;;;;-7.77;100.00;96102.03;1030670;28;20022;-72
2021/12/23 00:54:10;;;;;;;159.23;39.33;;;;;;;-7.78;100.00;96110.59;1028808;28;20022;-72
2021/12/23 00:54:40;;;;;;;320.73;48.67;;;;;;;-7.86;100.00;96112.09;1034134;28;20122;-72
2021/12/23 00:55:11;;;;;;;213.50;43.23;;;;;;;-7.78;100.00;96102.94;1035617;28;20080;-72
2021/12/23 00:55:41;;;;;;;143.70;41.97;;;;;;;-7.89;100.00;96091.19;1035183;28;20026;-73
2021/12/23 00:56:12;;;;;;;151.50;44.23;;;;;;;-7.89;100.00;96089.44;1031107;28;20044;-72
2021/12/23 00:56:48;;;;;;;135.10;40.73;;;;;;;-7.74;100.00;96109.41;1035290;28;20049;-72
2021/12/23 00:57:25;;;;;;;107.07;39.75;;;;;;;-7.73;100.00;96100.81;1032021;28;20026;-72
2021/12/23 00:57:56;;;;;;;141.05;40.80;;;;;;;-7.60;100.00;96111.47;1027399;28;20015;-72
2021/12/23 00:58:26;;;;;;;252.23;45.90;;;;;;;-7.57;100.00;96110.41;1032580;28;20035;-72
2021/12/23 00:58:57;;;;;;;166.43;44.23;;;;;;;-7.64;100.00;96107.63;1043601;28;20017;-73
2021/12/23 00:59:27;;;;;;;236.83;46.70;;;;;;;-7.63;100.00;96111.75;1042782;28;20016;-72
2021/12/23 00:59:58;;;;;;;203.23;44.80;;;;;;;-7.64;100.00;96100.78;1039029;28;20060;-71
2021/12/23 01:00:29;;;;;;;157.40;41.78;;;;;;;-7.67;100.00;96097.69;1034336;28;20037;-71
2021/12/23 01:01:00;;;;;;;129.90;40.73;;;;;;;-7.64;100.00;96097.44;1035978;28;20097;-72
2021/12/23 01:01:31;;;;;;;189.20;44.40;;;;;;;-7.64;100.00;96107.63;1031083;28;20109;-72
2021/12/23 01:02:03;;;;;;;119.83;39.27;;;;;;;-7.61;100.00;96105.59;1031383;28;20034;-72
2021/12/23 01:02:34;;;;;;;103.10;36.92;;;;;;;-7.54;100.00;96107.53;1035541;28;20045;-72
2021/12/23 01:03:05;;;;;;;175.97;42.30;;;;;;;-7.52;100.00;96106.47;1036180;28;20379;-72
2021/12/23 01:03:36;;;;;;;120.20;39.30;;;;;;;-7.49;100.00;96107.94;1039545;28;20033;-73
2021/12/23 01:04:06;;;;;;;106.27;37.73;;;;;;;-7.57;100.00;96095.91;1035078;28;20034;-72
2021/12/23 01:04:37;;;;;;;87.77;39.43;;;;;;;-7.46;100.00;96108.44;1038807;28;20414;-72
2021/12/23 01:05:08;;;;;;;152.93;39.60;;;;;;;-7.44;100.00;96104.03;1031269;28;20062;-73
2021/12/23 01:05:39;;;;;;;176.27;39.47;;;;;;;-7.45;100.00;96110.06;1030718;28;20601;-72
2021/12/23 01:06:09;;;;;;;184.10;36.60;;;;;;;-7.52;100.00;96106.47;1027716;28;20033;-72
2021/12/23 01:06:40;;;;;;;183.73;38.20;;;;;;;-7.61;100.00;96097.16;1034927;28;20025;-72
2021/12/23 01:07:10;;;;;;;104.43;33.67;;;;;;;-7.55;100.00;96103.41;1035064;28;20037;-71
2021/12/23 01:07:40;;;;;;;139.70;35.83;;;;;;;-7.64;100.00;96110.16;1035679;28;20383;-72
2021/12/23 01:08:15;;;;;;;119.40;35.08;;;;;;;-7.62;100.00;96105.72;1035123;28;20499;-72
2021/12/23 01:08:45;;;;;;;100.75;36.75;;;;;;;-7.60;100.00;96111.47;1030992;28;20500;-72
2021/12/23 01:09:16;;;;;;;105.67;32.57;;;;;;;-7.53;100.00;96111.72;1031079;28;20018;-71
2021/12/23 01:09:46;;;;;;;152.40;37.43;;;;;;;-7.62;100.00;96092.97;1031262;28;20022;-71
2021/12/23 01:10:17;;;;;;;107.00;34.93;;;;;;;-7.55;100.00;96114.38;1030911;28;20026;-72
2021/12/23 01:10:50;;;;;;;85.40;34.70;;;;;;;-7.50;100.00;96102.03;1034691;28;20022;-73
2021/12/23 01:11:20;;;;;;;94.18;36.40;;;;;;;-7.51;100.00;96100.44;1034905;28;20034;-73
2021/12/23 01:11:51;;;;;;;123.37;37.10;;;;;;;-7.45;100.00;96111.81;1039074;28;20025;-72
2021/12/23 01:12:28;;;;;;;94.00;34.13;;;;;;;-7.43;100.00;96113.28;1038845;28;20045;-72
2021/12/23 01:13:02;;;;;;;87.75;34.85;;;;;;;-7.40;100.00;96118.09;1027039;28;20269;-72
2021/12/23 01:13:32;;;;;;;86.20;32.78;;;;;;;-7.38;100.00;96105.19;1026585;28;20026;-72
2021/12/23 01:14:57;;;;;;;131.55;34.55;;;;;;;-7.42;100.00;96114.88;1035902;28;20034;-73
2021/12/23 01:16:06;;;;;;;120.60;34.05;;;;;;;-7.51;100.00;96108.09;1034747;28;20174;-72
2021/12/23 01:18:07;;;;;;;104.13;34.15;;;;;;;-7.46;100.00;96118.66;1042708;28;20517;-72
2021/12/23 01:18:44;;;;;;;86.30;31.95;;;;;;;-7.47;100.00;96118.81;1043484;28;20136;-73
2021/12/23 01:19:16;;;;;;;76.78;31.35;;;;;;;-7.49;100.00;96108.75;1036481;28;20080;-72
2021/12/23 01:19:51;;;;;;;65.72;30.48;;;;;;;-7.43;100.00;96123.47;1031150;28;20030;-72
2021/12/23 01:20:31;;;;;;;106.07;32.50;;;;;;;-7.47;100.00;96122.16;1030554;28;20042;-73
2021/12/23 01:21:16;;;;;;;77.45;29.55;;;;;;;-7.51;100.00;96120.84;1033918;28;20054;-73
2021/12/23 01:21:46;;;;;;;111.75;35.53;;;;;;;-7.61;100.00;96107.34;1034643;28;20034;-72
2021/12/23 01:22:17;;;;;;;80.13;33.60;;;;;;;-7.57;100.00;96106.09;1031128;28;20038;-73
2021/12/23 01:22:47;;;;;;;102.80;33.30;;;;;;;-7.48;100.00;96119.72;1024873;28;20605;-72
2021/12/23 01:23:20;;;;;;;75.03;31.67;;;;;;;-7.43;100.00;96118.38;1030759;28;20029;-72
2021/12/23 01:23:52;;;;;;;98.05;33.92;;;;;;;-7.52;100.00;96109.00;1035760;28;20044;-72
2021/12/23 01:24:27;;;;;;;73.38;32.03;;;;;;;-7.45;100.00;96117.69;1034503;28;20555;-72
2021/12/23 01:24:57;;;;;;;89.60;31.92;;;;;;;-7.45;100.00;96120.25;1038980;28;20017;-72
2021/12/23 01:25:28;;;;;;;110.20;33.47;;;;;;;-7.47;100.00;96117.06;1038959;28;20052;-72
2021/12/23 01:25:58;;;;;;;85.33;33.03;;;;;;;-7.47;100.00;96123.91;1026625;28;20019;-72
2021/12/23 01:26:29;;;;;;;80.60;31.83;;;;;;;-7.50;100.00;96121.63;1027062;28;20081;-72
2021/12/23 01:27:00;;;;;;;91.60;33.70;;;;;;;-7.67;100.00;96100.25;1026187;28;20053;-72
2021/12/23 01:27:33;;;;;;;79.95;33.53;;;;;;;-7.53;100.00;96106.63;1031291;28;20091;-71
2021/12/23 01:28:05;;;;;;;75.60;32.53;;;;;;;-7.45;100.00;96124.53;1030835;28;20715;-73
2021/12/23 01:28:35;;;;;;;85.53;34.10;;;;;;;-7.43;100.00;96115.03;1026790;28;20102;-72
2021/12/23 01:29:05;;;;;;;63.83;31.30;;;;;;;-7.38;100.00;96121.31;1023951;28;20027;-73
2021/12/23 01:29:36;;;;;;;112.90;33.90;;;;;;;-7.38;100.00;96120.47;1023224;28;20158;-72
2021/12/23 01:30:07;;;;;;;147.17;34.93;;;;;;;-7.42;100.00;96119.97;1026279;28;20023;-72
2021/12/23 01:30:37;;;;;;;87.15;33.95;;;;;;;-7.42;100.00;96114.88;1027191;28;20021;-72
2021/12/23 01:31:08;;;;;;;83.83;33.27;;;;;;;-7.44;100.00;96098.94;1034951;28;20036;-73
2021/12/23 01:31:39;;;;;;;78.10;33.17;;;;;;;-7.32;100.00;96119.91;1039040;28;20026;-72
2021/12/23 01:32:09;;;;;;;84.77;34.97;;;;;;;-7.30;100.00;96124.88;1023441;28;20078;-72
2021/12/23 01:32:40;;;;;;;101.17;35.67;;;;;;;-7.36;100.00;96108.41;1026996;28;20083;-72
2021/12/23 01:33:11;;;;;;;80.30;33.80;;;;;;;-7.27;100.00;96114.41;1031128;28;20018;-73
2021/12/23 01:33:41;;;;;;;126.87;38.40;;;;;;;-7.29;100.00;96117.09;1032136;28;20049;-72
2021/12/23 01:34:12;;;;;;;73.33;32.20;;;;;;;-7.31;100.00;96118.16;1035246;28;20490;-72
2021/12/23 01:34:42;;;;;;;90.27;32.30;;;;;;;-7.46;100.00;96098.25;1029488;28;20397;-73
2021/12/23 01:35:13;;;;;;;71.33;30.40;;;;;;;-7.40;100.00;96107.91;1032123;28;20014;-73
2021/12/23 01:35:45;;;;;;;104.23;33.37;;;;;;;-7.37;100.00;96102.50;1034952;28;20026;-73
2021/12/23 01:36:15;;;;;;;91.40;34.83;;;;;;;-7.32;100.00;96101.28;1034839;28;20072;-72
2021/12/23 01:36:46;;;;;;;62.00;29.97;;;;;;;-7.21;100.00;96118.91;1030859;28;20073;-72
2021/12/23 01:37:16;;;;;;;91.40;32.33;;;;;;;-7.21;100.00;96121.47;1035404;28;20018;-72
2021/12/23 01:37:47;;;;;;;75.37;31.90;;;;;;;-7.38;100.00;96089.91;1030810;28;20023;-72
2021/12/23 01:38:17;;;;;;;71.57;32.83;;;;;;;-7.29;100.00;96113.75;1033073;28;20092;-72
2021/12/23 01:38:48;;;;;;;69.20;32.63;;;;;;;-7.26;100.00;96113.47;1030861;28;20034;-73
2021/12/23 01:39:18;;;;;;;69.57;32.63;;;;;;;-7.25;100.00;96115.84;1023294;28;20031;-72
2021/12/23 01:39:49;;;;;;;72.40;32.93;;;;;;;-7.24;100.00;96104.72;1030318;28;20021;-72
2021/12/23 01:40:19;;;;;;;67.03;32.60;;;;;;;-7.20;100.00;96107.78;1030595;28;20026;-72
2021/12/23 01:40:50;;;;;;;62.10;31.77;;;;;;;-7.25;100.00;96100.56;1031021;28;20479;-72
2021/12/23 01:41:21;;;;;;;71.33;32.87;;;;;;;-7.33;100.00;96092.03;1031170;28;20608;-72
2021/12/23 01:41:52;;;;;;;64.15;32.60;;;;;;;-7.10;100.00;96106.00;1038718;28;20032;-72
2021/12/23 01:42:22;;;;;;;64.23;31.87;;;;;;;-7.11;100.00;96112.00;1035080;28;20029;-72
2021/12/23 01:42:53;;;;;;;83.07;31.60;;;;;;;-7.20;100.00;96108.59;1039087;28;20068;-72
2021/12/23 01:43:23;;;;;;;82.67;30.87;;;;;;;-7.30;100.00;96101.94;1036589;28;20017;-72
2021/12/23 01:43:54;;;;;;;71.87;32.10;;;;;;;-7.29;100.00;96108.66;1033503;28;20037;-72
2021/12/23 01:44:24;;;;;;;66.47;31.27;;;;;;;-7.24;100.00;96112.38;1027038;28;20370;-72
2021/12/23 01:44:54;;;;;;;72.10;32.37;;;;;;;-7.28;100.00;96105.94;1025593;28;20019;-72
2021/12/23 01:45:31;;;;;;;70.83;31.87;;;;;;;-7.26;100.00;96108.38;1035113;28;20080;-72
2021/12/23 01:46:02;;;;;;;63.92;31.60;;;;;;;-7.33;100.00;96092.03;1040004;28;20022;-72
2021/12/23 01:46:32;;;;;;;67.33;32.27;;;;;;;-7.31;100.00;96092.69;1033671;28;20014;-71
2021/12/23 01:47:03;;;;;;;71.93;33.13;;;;;;;-7.24;100.00;96102.19;1038383;28;20493;-72
2021/12/23 01:47:34;;;;;;;73.00;34.53;;;;;;;-7.28;100.00;96094.94;1035267;28;20030;-72
2021/12/23 01:48:07;;;;;;;86.03;33.50;;;;;;;-7.28;100.00;96100.03;1039078;28;20014;-72
2021/12/23 01:48:37;;;;;;;70.15;31.98;;;;;;;-7.28;100.00;96095.75;1034355;28;20018;-72
2021/12/23 01:49:08;;;;;;;70.70;30.93;;;;;;;-7.36;100.00;96082.94;1031621;28;20029;-72
2021/12/23 01:49:38;;;;;;;73.83;34.47;;;;;;;-7.19;100.00;96102.53;1029936;28;20060;-73
2021/12/23 01:50:10;;;;;;;70.53;33.33;;;;;;;-7.18;100.00;96090.59;1026978;28;20035;-72
2021/12/23 01:50:40;;;;;;;66.28;33.50;;;;;;;-7.24;100.00;96089.44;1030773;28;20928;-72
2021/12/23 01:51:11;;;;;;;69.40;32.60;;;;;;;-7.14;100.00;96102.13;1027008;28;20579;-72
2021/12/23 01:51:42;;;;;;;67.32;33.85;;;;;;;-7.13;100.00;96099.41;1034703;28;20025;-72
2021/12/23 01:52:12;;;;;;;62.17;32.07;;;;;;;-7.31;100.00;96064.63;1034822;28;20018;-72
2021/12/23 01:52:42;;;;;;;66.53;31.73;;;;;;;-7.09;100.00;96099.94;1035100;28;20033;-72
2021/12/23 01:53:14;;;;;;;69.37;31.83;;;;;;;-7.17;100.00;96087.91;1035051;28;20438;-72
2021/12/23 01:53:45;;;;;;;71.35;33.70;;;;;;;-7.10;100.00;96093.25;1023192;28;20023;-72
2021/12/23 01:54:15;;;;;;;73.73;34.73;;;;;;;-7.07;100.00;96092.97;1025427;28;20058;-72
2021/12/23 01:54:45;;;;;;;74.47;32.17;;;;;;;-7.08;100.00;96091.34;1030725;28;20476;-72
2021/12/23 01:55:18;;;;;;;71.63;32.53;;;;;;;-7.08;100.00;96086.22;1038842;28;20437;-72
2021/12/23 01:55:49;;;;;;;66.45;31.27;;;;;;;-7.15;100.00;96069.91;1039044;28;20064;-72
2021/12/23 01:56:19;;;;;;;70.33;33.53;;;;;;;-7.04;100.00;96089.28;1032834;28;20018;-73
2021/12/23 01:56:50;;;;;;;68.60;32.50;;;;;;;-7.07;100.00;96087.84;1028338;28;20046;-71
2021/12/23 01:57:20;;;;;;;67.37;33.50;;;;;;;-7.16;100.00;96076.75;1029260;28;20484;-72
2021/12/23 01:57:51;;;;;;;69.27;31.90;;;;;;;-7.10;100.00;96083.03;1036575;28;20240;-72
2021/12/23 01:58:21;;;;;;;67.10;32.60;;;;;;;-7.10;100.00;96084.78;1035041;28;20033;-72
2021/12/23 01:58:52;;;;;;;67.90;32.13;;;;;;;-7.15;100.00;96068.16;1035040;28;20495;-72
2021/12/23 01:59:22;;;;;;;68.63;32.50;;;;;;;-7.17;100.00;96071.81;1023349;28;20114;-72
2021/12/23 01:59:53;;;;;;;63.77;30.90;;;;;;;-7.24;100.00;96061.41;1030784;28;20026;-73
2021/12/23 02:00:26;;;;;;;70.93;32.93;;;;;;;-7.20;100.00;96072.09;1031777;28;20030;-72
2021/12/23 02:00:56;;;;;;;67.78;32.15;;;;;;;-7.18;100.00;96075.28;1023279;28;20882;-72
2021/12/23 02:01:27;;;;;;;64.63;32.03;;;;;;;-7.21;100.00;96065.38;1034662;28;20065;-72
2021/12/23 02:01:57;;;;;;;69.37;32.20;;;;;;;-7.17;100.00;96076.91;1030249;28;20566;-72
2021/12/23 02:02:27;;;;;;;66.30;31.50;;;;;;;-7.13;100.00;96079.03;1027964;28;20402;-72
2021/12/23 02:02:58;;;;;;;76.53;34.13;;;;;;;-7.13;100.00;96073.94;1039603;28;20025;-72
2021/12/23 02:03:28;;;;;;;68.90;32.87;;;;;;;-7.10;100.00;96080.50;1037613;28;20041;-72
2021/12/23 02:03:59;;;;;;;64.07;32.97;;;;;;;-7.13;100.00;96073.13;1035110;28;20030;-72
2021/12/23 02:04:29;;;;;;;72.93;32.47;;;;;;;-7.14;100.00;96071.53;1035124;28;20033;-72
2021/12/23 02:05:00;;;;;;;67.20;31.40;;;;;;;-7.17;100.00;96070.06;1034783;28;20026;-73
2021/12/23 02:05:30;;;;;;;69.80;33.13;;;;;;;-7.17;100.00;96059.06;1030910;28;20026;-71
2021/12/23 02:06:01;;;;;;;70.00;34.00;;;;;;;-7.12;100.00;96064.53;1034115;28;20034;-71
2021/12/23 02:06:31;;;;;;;72.23;34.73;;;;;;;-7.13;100.00;96068.03;1032440;28;20031;-72
2021/12/23 02:07:02;;;;;;;66.33;32.00;;;;;;;-7.17;100.00;96059.06;1031210;28;20026;-71
2021/12/23 02:07:32;;;;;;;66.97;31.50;;;;;;;-7.17;100.00;96059.88;1031769;28;20054;-72
2021/12/23 02:08:03;;;;;;;66.30;33.47;;;;;;;-7.14;100.00;96067.22;1030972;28;20534;-72
2021/12/23 02:08:34;;;;;;;64.97;31.83;;;;;;;-7.16;100.00;96068.31;1035088;28;20037;-71
2021/12/23 02:09:04;;;;;;;66.60;32.23;;;;;;;-7.17;100.00;96064.19;1036954;28;20088;-72
2021/12/23 02:09:35;;;;;;;77.80;34.43;;;;;;;-7.19;100.00;96063.50;1039049;28;20056;-71
2021/12/23 02:10:06;;;;;;;64.63;32.10;;;;;;;-7.27;100.00;96050.69;1038407;28;20464;-71
2021/12/23 02:10:37;;;;;;;68.25;33.10;;;;;;;-7.31;100.00;96047.59;1026994;28;20061;-72
2021/12/23 02:11:08;;;;;;;68.40;32.70;;;;;;;-7.23;100.00;96062.19;1027383;28;20043;-72
2021/12/23 02:11:39;;;;;;;67.38;33.08;;;;;;;-7.22;100.00;96056.94;1034818;28;20041;-72
2021/12/23 02:12:09;;;;;;;67.60;32.37;;;;;;;-7.32;100.00;96042.66;1035231;28;20334;-72
2021/12/23 02:12:44;;;;;;;66.57;32.80;;;;;;;-7.27;100.00;96045.59;1034942;28;20549;-72
2021/12/23 02:13:14;;;;;;;66.50;32.65;;;;;;;-7.31;100.00;96039.16;1035032;28;20125;-71
2021/12/23 02:13:45;;;;;;;77.83;34.53;;;;;;;-7.31;100.00;96042.50;1031996;28;20026;-72
2021/12/23 02:14:17;;;;;;;69.17;33.23;;;;;;;-7.30;100.00;96039.03;1039191;28;20033;-72
2021/12/23 02:14:47;;;;;;;72.53;33.38;;;;;;;-7.24;100.00;96053.75;1038312;28;20447;-72
2021/12/23 02:15:18;;;;;;;69.93;32.53;;;;;;;-7.26;100.00;96044.63;1035418;28;20022;-72
2021/12/23 02:15:49;;;;;;;73.87;34.27;;;;;;;-7.29;100.00;96039.81;1031165;28;20030;-72
2021/12/23 02:16:19;;;;;;;67.23;34.17;;;;;;;-7.36;100.00;96027.66;1035604;28;20040;-72
2021/12/23 02:16:52;;;;;;;71.75;33.60;;;;;;;-7.33;100.00;96041.06;1035220;28;20033;-72
2021/12/23 02:17:23;;;;;;;78.70;36.13;;;;;;;-7.38;100.00;96037.22;1031691;28;20069;-71
2021/12/23 02:17:53;;;;;;;79.17;34.60;;;;;;;-7.37;100.00;96031.16;1026975;28;20086;-72
2021/12/23 02:18:24;;;;;;;72.07;33.53;;;;;;;-7.37;100.00;96025.25;1037612;28;20092;-72
2021/12/23 02:18:54;;;;;;;77.10;34.10;;;;;;;-7.41;100.00;96029.03;1039527;28;20080;-72
2021/12/23 02:19:25;;;;;;;68.00;32.30;;;;;;;-7.34;100.00;96040.28;1037284;28;20026;-72
2021/12/23 02:19:55;;;;;;;76.13;33.17;;;;;;;-7.40;100.00;96026.34;1035889;28;20038;-71
2021/12/23 02:20:31;;;;;;;66.87;32.87;;;;;;;-7.37;100.00;96035.47;1035890;28;20494;-72
2021/12/23 02:21:02;;;;;;;68.07;32.53;;;;;;;-7.39;100.00;96030.47;1038053;28;20064;-73
2021/12/23 02:21:33;;;;;;;75.22;33.50;;;;;;;-7.38;100.00;96034.66;1031654;28;20026;-72
2021/12/23 02:22:04;;;;;;;62.93;31.53;;;;;;;-7.40;100.00;96034.00;1032516;28;20082;-72
2021/12/23 02:22:34;;;;;;;75.90;34.33;;;;;;;-7.36;100.00;96039.59;1031034;28;20022;-71
2021/12/23 02:23:06;;;;;;;75.10;34.27;;;;;;;-7.42;100.00;96032.53;1031347;28;20018;-73
2021/12/23 02:23:37;;;;;;;70.55;32.25;;;;;;;-7.36;100.00;96039.59;1030642;28;20058;-72
2021/12/23 02:24:07;;;;;;;68.40;32.03;;;;;;;-7.36;100.00;96037.84;1035288;28;20356;-71
2021/12/23 02:24:38;;;;;;;65.03;31.43;;;;;;;-7.39;100.00;96043.22;1034595;28;20557;-71
2021/12/23 02:25:09;;;;;;;70.20;33.17;;;;;;;-7.39;100.00;96044.97;1027307;28;20493;-72
2021/12/23 02:25:39;;;;;;;69.88;32.05;;;;;;;-7.41;100.00;96045.13;1027011;28;20050;-73
2021/12/23 02:26:10;;;;;;;72.10;35.23;;;;;;;-7.40;100.00;96041.63;1031167;28;20030;-72
2021/12/23 02:26:41;;;;;;;66.43;32.97;;;;;;;-7.48;100.00;96033.88;1031000;28;20519;-72
2021/12/23 02:27:11;;;;;;;69.75;32.78;;;;;;;-7.48;100.00;96033.09;1032977;28;20133;-72
2021/12/23 02:27:42;;;;;;;67.50;33.13;;;;;;;-7.49;100.00;96028.94;1027298;28;20069;-72
2021/12/23 02:28:19;;;;;;;73.03;34.43;;;;;;;-7.45;100.00;96031.06;1031391;28;20021;-72
2021/12/23 02:28:49;;;;;;;71.55;33.35;;;;;;;-7.46;100.00;96032.00;1031442;28;20113;-72
2021/12/23 02:29:20;;;;;;;71.50;32.33;;;;;;;-7.49;100.00;96032.28;1029070;28;20035;-72
2021/12/23 02:29:50;;;;;;;66.90;31.53;;;;;;;-7.65;100.00;96015.09;1023141;29;20031;-72
2021/12/23 02:30:23;;;;;;;69.50;32.63;;;;;;;-7.43;100.00;96041.91;1028255;28;20030;-71